Time;durP1;ratioP1;P1;durP2;ratioP2;P2;SDS_P1;SDS_P2;PMS_P1;PMS_P2;Temp;Humidity;BMP_temperature;BMP_pressure;BME280_temperature;BME280_humidity;BME280_pressure;Samples;Min_cycle;Max_cycle;Signal;HPM_P1;HPM_P2
2023/08/19 00:01:18;;;;;;;45.53;37.75;;;19.70;99.90;;;;;;5056356;28;20080;-24
2023/08/19 00:03:44;;;;;;;49.65;42.33;;;19.60;99.90;;;;;;5054144;28;20049;-26
2023/08/19 00:06:12;;;;;;;42.97;36.08;;;19.60;99.90;;;;;;5063651;28;20051;-25
2023/08/19 00:08:38;;;;;;;45.67;37.03;;;19.50;99.90;;;;;;5073791;28;20151;-25
2023/08/19 00:11:04;;;;;;;46.63;38.25;;;19.50;99.90;;;;;;5060930;28;20041;-24
2023/08/19 00:13:31;;;;;;;51.67;41.03;;;19.50;99.90;;;;;;5054823;28;20088;-24
2023/08/19 00:15:57;;;;;;;67.88;59.00;;;19.50;99.90;;;;;;5054785;28;20049;-25
2023/08/19 00:18:23;;;;;;;44.85;37.50;;;19.50;99.90;;;;;;5053400;28;20045;-24
2023/08/19 00:20:52;;;;;;;48.08;37.47;;;19.40;99.90;;;;;;5054756;28;20055;-25
2023/08/19 00:23:18;;;;;;;43.70;35.15;;;19.40;99.90;;;;;;5053809;28;20041;-24
2023/08/19 00:25:44;;;;;;;41.80;35.42;;;19.40;99.90;;;;;;5037336;28;20107;-24
2023/08/19 00:28:09;;;;;;;47.00;36.35;;;19.40;99.90;;;;;;5055475;28;20406;-23
2023/08/19 00:30:35;;;;;;;40.75;35.25;;;19.40;99.90;;;;;;5054612;28;20045;-24
2023/08/19 00:33:01;;;;;;;42.30;34.60;;;19.50;99.90;;;;;;5054489;28;20471;-24
2023/08/19 00:35:27;;;;;;;41.78;33.72;;;19.50;99.90;;;;;;5054573;28;20450;-24
2023/08/19 00:37:52;;;;;;;41.85;36.38;;;19.50;99.90;;;;;;5054382;28;20128;-24
2023/08/19 00:40:18;;;;;;;42.60;35.90;;;19.50;99.90;;;;;;5060742;28;20509;-24
2023/08/19 00:42:44;;;;;;;39.95;34.92;;;19.50;99.90;;;;;;5054370;28;20095;-25
2023/08/19 00:45:10;;;;;;;44.92;36.45;;;19.50;99.90;;;;;;5053102;28;20064;-24
2023/08/19 00:47:37;;;;;;;41.90;33.92;;;19.50;99.90;;;;;;5054307;28;20471;-24
2023/08/19 00:50:09;;;;;;;44.03;36.28;;;19.50;99.90;;;;;;5060297;28;20485;-24
2023/08/19 00:52:36;;;;;;;38.80;32.67;;;19.40;99.90;;;;;;5062553;28;20083;-24
2023/08/19 00:55:04;;;;;;;39.53;31.88;;;19.50;99.90;;;;;;5053076;28;20045;-24
2023/08/19 00:57:32;;;;;;;39.60;34.83;;;19.50;99.90;;;;;;5053035;28;20049;-24
2023/08/19 00:59:57;;;;;;;41.67;32.90;;;19.50;99.90;;;;;;5053237;28;20040;-24
2023/08/19 01:02:23;;;;;;;39.35;33.42;;;19.50;99.90;;;;;;5032249;28;1187774;-24
2023/08/19 01:04:52;;;;;;;42.67;33.58;;;19.50;99.90;;;;;;5075302;28;20063;-25
2023/08/19 01:07:32;;;;;;;37.55;32.95;;;19.60;99.90;;;;;;5073764;28;20077;-25
2023/08/19 01:10:11;;;;;;;42.33;33.85;;;19.50;99.90;;;;;;5074583;28;20059;-24
2023/08/19 01:12:46;;;;;;;41.05;34.50;;;19.40;99.90;;;;;;5052948;28;20081;-24
2023/08/19 01:15:18;;;;;;;44.17;36.15;;;19.40;99.90;;;;;;5054548;28;20049;-25
2023/08/19 01:17:45;;;;;;;45.88;36.60;;;19.30;99.90;;;;;;5055400;28;20049;-25
2023/08/19 01:20:13;;;;;;;44.28;35.92;;;19.40;99.90;;;;;;5054703;28;20049;-24
2023/08/19 01:22:52;;;;;;;46.83;36.17;;;19.30;99.90;;;;;;5069754;28;20052;-24
2023/08/19 01:25:19;;;;;;;43.55;35.80;;;19.30;99.90;;;;;;5074071;28;20059;-24
2023/08/19 01:27:45;;;;;;;42.78;35.55;;;19.30;99.90;;;;;;5071191;28;20052;-24
2023/08/19 01:30:11;;;;;;;48.88;36.97;;;19.30;99.90;;;;;;5074485;28;20517;-25
2023/08/19 01:32:38;;;;;;;43.75;36.28;;;19.20;99.90;;;;;;5073142;28;20554;-24
2023/08/19 01:35:05;;;;;;;42.67;35.42;;;19.20;99.90;;;;;;5074402;28;20088;-24
2023/08/19 01:38:02;;;;;;;49.05;37.35;;;19.10;99.90;;;;;;5056951;28;20057;-24
2023/08/19 01:40:30;;;;;;;51.22;39.70;;;19.10;99.90;;;;;;5054962;28;20041;-24
2023/08/19 01:42:58;;;;;;;51.92;38.90;;;19.10;99.90;;;;;;5054299;28;20494;-24
2023/08/19 01:45:25;;;;;;;51.85;37.25;;;19.20;99.90;;;;;;5053312;28;20103;-24
2023/08/19 01:47:53;;;;;;;48.80;36.05;;;19.20;99.90;;;;;;5053599;28;20048;-24
2023/08/19 01:50:19;;;;;;;47.40;38.95;;;19.10;99.90;;;;;;5070736;28;20060;-24
2023/08/19 01:52:45;;;;;;;49.55;35.22;;;19.10;99.90;;;;;;5071838;28;20094;-24
2023/08/19 01:55:11;;;;;;;49.20;39.00;;;19.20;99.90;;;;;;5053750;28;20053;-22
2023/08/19 01:57:37;;;;;;;51.67;40.28;;;19.20;99.90;;;;;;5054057;28;20049;-22
2023/08/19 02:00:04;;;;;;;55.05;40.03;;;19.10;99.90;;;;;;5053338;28;20121;-22
2023/08/19 02:02:29;;;;;;;53.95;40.55;;;19.10;99.90;;;;;;5052622;28;20139;-22
2023/08/19 02:04:55;;;;;;;49.13;37.80;;;19.20;99.90;;;;;;5052743;28;20139;-22
2023/08/19 02:07:21;;;;;;;54.10;41.60;;;19.20;99.90;;;;;;5052768;28;20045;-22
2023/08/19 02:09:47;;;;;;;49.20;39.35;;;19.20;99.90;;;;;;5037991;28;20045;-22
2023/08/19 02:12:13;;;;;;;54.67;41.83;;;19.20;99.90;;;;;;5039391;28;20048;-22
2023/08/19 02:14:38;;;;;;;52.40;39.50;;;19.10;99.90;;;;;;5073771;28;20052;-22
2023/08/19 02:17:04;;;;;;;57.05;42.45;;;19.20;99.90;;;;;;5073758;28;20048;-22
2023/08/19 02:19:30;;;;;;;52.92;40.55;;;19.20;99.90;;;;;;5074559;28;20059;-22
2023/08/19 02:21:55;;;;;;;52.58;39.63;;;19.10;99.90;;;;;;5039635;28;20041;-22
2023/08/19 02:24:21;;;;;;;50.72;39.45;;;19.20;99.90;;;;;;5053554;28;20135;-22
2023/08/19 02:26:47;;;;;;;58.38;41.72;;;19.20;99.90;;;;;;5052260;28;20132;-23
2023/08/19 02:29:13;;;;;;;51.75;38.10;;;19.20;99.90;;;;;;5035849;28;20048;-22
2023/08/19 02:31:39;;;;;;;49.92;37.95;;;19.10;99.90;;;;;;5052872;28;20045;-22
2023/08/19 02:34:05;;;;;;;50.78;40.45;;;19.10;99.90;;;;;;5054378;28;20426;-22
2023/08/19 02:36:31;;;;;;;55.08;38.95;;;19.20;99.90;;;;;;5053197;28;20040;-22
2023/08/19 02:38:57;;;;;;;56.80;38.95;;;19.30;99.90;;;;;;5052859;28;20053;-22
2023/08/19 02:41:24;;;;;;;51.88;40.72;;;19.20;99.90;;;;;;5054899;28;20048;-22
2023/08/19 02:43:50;;;;;;;46.67;38.40;;;19.20;99.90;;;;;;5072399;28;20047;-23
2023/08/19 02:46:18;;;;;;;48.75;38.50;;;19.30;99.90;;;;;;5073504;28;20469;-22
2023/08/19 02:48:44;;;;;;;49.85;39.58;;;19.30;99.90;;;;;;5072327;28;20048;-22
2023/08/19 02:51:10;;;;;;;49.90;39.25;;;19.20;99.90;;;;;;5072950;28;20458;-22
2023/08/19 02:53:35;;;;;;;51.05;37.60;;;19.20;99.90;;;;;;5055663;28;20048;-22
2023/08/19 02:56:05;;;;;;;47.75;37.95;;;19.40;99.90;;;;;;5052197;28;20049;-22
2023/08/19 02:58:30;;;;;;;50.63;36.75;;;19.30;99.90;;;;;;5036334;28;20083;-22
2023/08/19 03:00:56;;;;;;;42.65;34.72;;;19.40;99.90;;;;;;5052143;28;20045;-22
2023/08/19 03:03:22;;;;;;;41.25;35.40;;;19.30;99.90;;;;;;5052754;28;20503;-22
2023/08/19 03:05:48;;;;;;;46.60;35.38;;;19.40;99.90;;;;;;5053249;28;20056;-22
2023/08/19 03:08:14;;;;;;;39.65;33.60;;;19.50;99.90;;;;;;5053557;28;20041;-22
2023/08/19 03:10:40;;;;;;;40.60;33.58;;;19.50;99.90;;;;;;5052240;28;20390;-22
2023/08/19 03:13:07;;;;;;;42.05;33.55;;;19.40;99.90;;;;;;5051597;28;20507;-22
2023/08/19 03:15:35;;;;;;;39.55;32.78;;;19.40;99.90;;;;;;5053029;28;20045;-22
2023/08/19 03:18:01;;;;;;;41.90;33.70;;;19.30;99.90;;;;;;5052498;28;20049;-22
2023/08/19 03:20:27;;;;;;;44.60;35.47;;;19.30;99.90;;;;;;5053097;28;20052;-22
2023/08/19 03:22:53;;;;;;;46.33;35.33;;;19.30;99.90;;;;;;5052975;28;20056;-22
2023/08/19 03:25:19;;;;;;;45.25;33.35;;;19.30;99.90;;;;;;5035436;28;20045;-22
2023/08/19 03:27:45;;;;;;;42.20;32.83;;;19.40;99.90;;;;;;5053326;28;20052;-22
2023/08/19 03:30:11;;;;;;;41.45;34.35;;;19.40;99.90;;;;;;5051634;28;20045;-22
2023/08/19 03:32:37;;;;;;;37.78;32.65;;;19.30;99.90;;;;;;5052942;28;20037;-22
2023/08/19 03:35:02;;;;;;;42.60;32.72;;;19.50;99.90;;;;;;5062059;28;20098;-22
2023/08/19 03:37:28;;;;;;;39.20;32.10;;;19.30;99.90;;;;;;5058672;28;20106;-22
2023/08/19 03:39:54;;;;;;;44.92;36.50;;;19.40;99.90;;;;;;5076636;28;20040;-22
2023/08/19 03:42:20;;;;;;;44.45;33.80;;;19.30;99.90;;;;;;5075397;28;20048;-22
2023/08/19 03:44:48;;;;;;;41.85;33.00;;;19.30;99.90;;;;;;5072258;28;20045;-22
2023/08/19 03:47:14;;;;;;;35.30;29.60;;;19.30;99.90;;;;;;5055371;28;20398;-22
2023/08/19 03:49:40;;;;;;;38.15;32.90;;;19.40;99.90;;;;;;5055517;28;20041;-22
2023/08/19 03:52:06;;;;;;;36.40;30.92;;;19.40;99.90;;;;;;5056366;28;20088;-22
2023/08/19 03:54:32;;;;;;;36.55;32.13;;;19.30;99.90;;;;;;5056363;28;20086;-22
2023/08/19 03:56:58;;;;;;;37.80;31.70;;;19.40;99.90;;;;;;5072904;28;20048;-22
2023/08/19 03:59:24;;;;;;;38.58;31.13;;;19.40;99.90;;;;;;5076256;28;20041;-22
2023/08/19 04:01:49;;;;;;;37.05;31.48;;;19.40;99.90;;;;;;5059326;28;20041;-22
2023/08/19 04:04:15;;;;;;;34.28;30.52;;;19.40;99.90;;;;;;5054780;28;20061;-23
2023/08/19 04:06:41;;;;;;;39.63;33.35;;;19.50;99.90;;;;;;5066127;28;20049;-22
2023/08/19 04:09:07;;;;;;;40.95;32.17;;;19.50;99.90;;;;;;5076091;28;20036;-22
2023/08/19 04:11:34;;;;;;;37.17;31.33;;;19.50;99.90;;;;;;5075988;28;20047;-22
2023/08/19 04:13:59;;;;;;;38.22;30.20;;;19.50;99.90;;;;;;5074794;28;20563;-22
2023/08/19 04:16:25;;;;;;;39.33;32.95;;;19.50;99.90;;;;;;5074453;28;20041;-22
2023/08/19 04:18:51;;;;;;;34.47;30.08;;;19.40;99.90;;;;;;5074634;28;20044;-22
2023/08/19 04:21:19;;;;;;;41.00;30.63;;;19.50;99.90;;;;;;5057971;28;20041;-22
2023/08/19 04:23:45;;;;;;;35.58;30.42;;;19.50;99.90;;;;;;5058583;28;20041;-22
2023/08/19 04:26:11;;;;;;;37.95;30.38;;;19.50;99.90;;;;;;5075762;28;20043;-22
2023/08/19 04:28:37;;;;;;;34.72;30.05;;;19.40;99.90;;;;;;5073652;28;20056;-22
2023/08/19 04:31:10;;;;;;;31.67;28.27;;;19.50;99.90;;;;;;5075620;28;20052;-22
2023/08/19 04:33:36;;;;;;;33.53;29.27;;;19.40;99.90;;;;;;5075675;28;20084;-22
2023/08/19 04:36:03;;;;;;;33.30;28.70;;;19.50;99.90;;;;;;5075625;28;20091;-22
2023/08/19 04:38:29;;;;;;;34.83;26.48;;;19.50;99.90;;;;;;5064928;28;20048;-22
2023/08/19 04:40:56;;;;;;;33.30;27.48;;;19.40;99.90;;;;;;5054346;28;20395;-22
2023/08/19 04:43:22;;;;;;;34.40;28.13;;;19.50;99.90;;;;;;5056309;28;20045;-22
2023/08/19 04:45:48;;;;;;;31.67;27.10;;;19.50;99.90;;;;;;5053956;28;20372;-22
2023/08/19 04:48:14;;;;;;;31.35;28.05;;;19.50;99.90;;;;;;5058778;28;20071;-24
2023/08/19 04:50:39;;;;;;;29.98;26.75;;;19.60;99.90;;;;;;5075328;28;20129;-24
2023/08/19 04:53:05;;;;;;;29.75;25.63;;;19.60;99.90;;;;;;5057359;28;20055;-24
2023/08/19 04:55:31;;;;;;;29.13;25.73;;;19.60;99.90;;;;;;5057631;28;20052;-24
2023/08/19 04:57:57;;;;;;;35.90;27.17;;;19.60;99.90;;;;;;5074608;28;20383;-24
2023/08/19 05:00:23;;;;;;;31.35;25.98;;;19.70;99.90;;;;;;5072076;28;20149;-24
2023/08/19 05:02:49;;;;;;;30.88;26.42;;;19.80;99.90;;;;;;5075106;28;20486;-24
2023/08/19 05:05:15;;;;;;;29.95;25.25;;;19.80;99.90;;;;;;5073756;28;20063;-24
2023/08/19 05:07:41;;;;;;;29.55;26.35;;;19.90;99.90;;;;;;5073823;28;20047;-24
2023/08/19 05:10:08;;;;;;;29.25;23.92;;;19.90;99.90;;;;;;5071755;28;20045;-24
2023/08/19 05:12:34;;;;;;;25.55;22.85;;;19.90;99.90;;;;;;5073680;28;20127;-24
2023/08/19 05:15:00;;;;;;;29.20;23.27;;;20.00;99.90;;;;;;5074820;28;20092;-25
2023/08/19 05:17:26;;;;;;;25.98;22.80;;;20.00;99.90;;;;;;5075639;28;20072;-24
2023/08/19 05:19:51;;;;;;;26.08;22.38;;;20.10;99.90;;;;;;5071752;28;20386;-24
2023/08/19 05:22:17;;;;;;;26.30;22.10;;;20.00;99.90;;;;;;5073473;28;20047;-25
2023/08/19 05:24:43;;;;;;;23.05;20.65;;;20.10;99.90;;;;;;5074062;28;20127;-24
2023/08/19 05:27:09;;;;;;;24.45;21.50;;;20.10;99.90;;;;;;5074620;28;20398;-24
2023/08/19 05:29:35;;;;;;;22.08;19.67;;;20.10;99.90;;;;;;5073604;28;20429;-24
2023/08/19 05:32:01;;;;;;;23.98;20.80;;;20.20;99.90;;;;;;5071928;28;20139;-24
2023/08/19 05:34:27;;;;;;;24.52;19.45;;;20.20;99.90;;;;;;5074201;28;20063;-24
2023/08/19 05:36:53;;;;;;;20.85;18.48;;;20.20;99.90;;;;;;5074340;28;20059;-24
2023/08/19 05:39:19;;;;;;;21.38;19.15;;;20.20;99.90;;;;;;5074357;28;20059;-25
2023/08/19 05:41:44;;;;;;;23.85;19.67;;;20.30;99.90;;;;;;5072641;28;20041;-25
2023/08/19 05:44:10;;;;;;;20.42;18.10;;;20.30;99.90;;;;;;5074564;28;20386;-24
2023/08/19 05:46:36;;;;;;;20.67;18.50;;;20.40;99.90;;;;;;5074233;28;20040;-25
2023/08/19 05:49:01;;;;;;;22.75;17.60;;;20.50;99.90;;;;;;5074199;28;20080;-25
2023/08/19 05:51:27;;;;;;;21.88;18.35;;;20.60;99.90;;;;;;5072802;28;20123;-25
2023/08/19 05:54:00;;;;;;;19.70;17.58;;;20.70;99.90;;;;;;5072915;28;20054;-25
2023/08/19 05:56:27;;;;;;;19.55;17.55;;;20.80;99.90;;;;;;5074046;28;20056;-25
2023/08/19 05:58:53;;;;;;;18.70;16.58;;;20.80;99.90;;;;;;5072513;28;20041;-25
2023/08/19 06:01:18;;;;;;;17.90;16.13;;;20.90;99.90;;;;;;5073116;28;20051;-24
2023/08/19 06:03:44;;;;;;;19.88;16.55;;;20.90;99.90;;;;;;5054772;28;20061;-25
2023/08/19 06:06:10;;;;;;;17.10;15.32;;;20.90;99.90;;;;;;5054459;28;20057;-24
2023/08/19 06:08:36;;;;;;;17.83;16.13;;;20.90;99.90;;;;;;5054199;28;20045;-24
2023/08/19 06:11:07;;;;;;;17.40;15.55;;;20.90;99.90;;;;;;5054014;28;20545;-24
2023/08/19 06:13:34;;;;;;;17.23;15.38;;;20.90;99.90;;;;;;5065609;28;20494;-24
2023/08/19 06:16:00;;;;;;;18.38;16.08;;;20.90;99.90;;;;;;5073356;28;20407;-25
2023/08/19 06:18:26;;;;;;;16.58;14.95;;;21.00;99.90;;;;;;5073811;28;20057;-25
2023/08/19 06:20:52;;;;;;;21.77;15.93;;;21.00;99.90;;;;;;5073362;28;20135;-25
2023/08/19 06:23:19;;;;;;;19.52;14.65;;;21.00;99.90;;;;;;5070899;28;20475;-25
2023/08/19 06:25:47;;;;;;;15.85;14.10;;;21.10;99.90;;;;;;5072783;28;20094;-25
2023/08/19 06:28:13;;;;;;;16.67;14.93;;;21.10;99.90;;;;;;5073694;28;20407;-25
2023/08/19 06:30:39;;;;;;;18.17;14.40;;;21.20;99.90;;;;;;5072494;28;20052;-25
2023/08/19 06:33:05;;;;;;;18.77;14.80;;;21.20;99.90;;;;;;5071345;28;20044;-24
2023/08/19 06:35:32;;;;;;;16.90;14.73;;;21.30;99.90;;;;;;5053458;28;20072;-25
2023/08/19 06:38:03;;;;;;;15.80;14.20;;;21.30;99.90;;;;;;5053501;28;20049;-25
2023/08/19 06:40:34;;;;;;;14.40;13.00;;;21.40;99.90;;;;;;5053444;28;20400;-24
2023/08/19 06:43:00;;;;;;;16.38;13.70;;;21.50;99.90;;;;;;5053538;28;20048;-25
2023/08/19 06:45:26;;;;;;;14.43;13.02;;;21.50;99.90;;;;;;5059482;28;20045;-24
2023/08/19 06:47:53;;;;;;;15.35;13.77;;;21.60;99.90;;;;;;5053672;28;20462;-25
2023/08/19 06:50:19;;;;;;;14.90;13.05;;;21.60;99.90;;;;;;5054254;28;20072;-25
2023/08/19 06:52:45;;;;;;;17.23;14.48;;;21.60;99.90;;;;;;5053622;28;20372;-25
2023/08/19 06:55:12;;;;;;;15.57;13.98;;;21.60;99.90;;;;;;5053735;28;20439;-25
2023/08/19 06:57:51;;;;;;;14.50;12.63;;;21.60;99.90;;;;;;5052220;28;20045;-25
2023/08/19 07:00:18;;;;;;;15.90;13.35;;;21.50;99.90;;;;;;5053273;28;20145;-25
2023/08/19 07:02:44;;;;;;;14.85;12.98;;;21.50;99.90;;;;;;5052142;28;20055;-25
2023/08/19 07:05:15;;;;;;;14.82;13.20;;;21.50;99.90;;;;;;5056293;28;20064;-24
2023/08/19 07:07:47;;;;;;;16.60;14.45;;;21.50;99.90;;;;;;5035517;28;20053;-23
2023/08/19 07:10:18;;;;;;;13.90;12.48;;;21.50;99.90;;;;;;5056528;28;20059;-24
2023/08/19 07:12:44;;;;;;;15.68;12.45;;;21.50;99.90;;;;;;5067694;28;20037;-23
2023/08/19 07:15:14;;;;;;;15.70;12.27;;;21.60;99.90;;;;;;5066970;28;20044;-23
2023/08/19 07:17:43;;;;;;;13.20;11.75;;;21.70;99.90;;;;;;5057107;28;20057;-25
2023/08/19 07:20:16;;;;;;;13.30;11.68;;;21.70;99.90;;;;;;5057822;28;20049;-24
2023/08/19 07:22:47;;;;;;;;;;;21.80;99.90;;;;;;5057391;28;20486;-23
2023/08/19 07:25:13;;;;;;;13.68;12.10;;;21.90;99.90;;;;;;5056917;28;20325;-24
2023/08/19 07:27:41;;;;;;;13.02;11.73;;;22.00;99.90;;;;;;5059090;28;20132;-24
2023/08/19 07:30:08;;;;;;;13.77;10.63;;;22.10;99.90;;;;;;5077151;28;20044;-24
2023/08/19 07:32:35;;;;;;;13.13;11.27;;;22.20;99.90;;;;;;5076775;28;20107;-24
2023/08/19 07:35:02;;;;;;;12.35;10.48;;;22.30;99.90;;;;;;5075804;28;20071;-24
2023/08/19 07:37:28;;;;;;;14.52;11.63;;;22.30;99.90;;;;;;5076588;28;20493;-24
2023/08/19 07:39:54;;;;;;;14.57;11.10;;;22.40;99.90;;;;;;5075786;28;20422;-23
2023/08/19 07:42:20;;;;;;;13.07;10.30;;;22.50;99.90;;;;;;5076620;28;20040;-24
2023/08/19 07:44:46;;;;;;;13.40;11.10;;;22.60;99.90;;;;;;5076561;28;20052;-24
2023/08/19 07:47:11;;;;;;;11.68;10.40;;;22.70;99.90;;;;;;5076543;28;20041;-24
2023/08/19 07:49:40;;;;;;;14.27;11.82;;;22.70;99.90;;;;;;5075288;28;20510;-24
2023/08/19 07:52:06;;;;;;;15.45;11.50;;;22.80;99.90;;;;;;5076122;28;20074;-25
2023/08/19 07:54:32;;;;;;;13.02;9.63;;;22.90;99.90;;;;;;5076665;28;20051;-24
2023/08/19 07:56:58;;;;;;;12.45;9.68;;;22.80;99.90;;;;;;5074405;28;20416;-24
2023/08/19 07:59:26;;;;;;;12.02;9.55;;;22.80;99.90;;;;;;5059469;28;20045;-24
2023/08/19 08:01:52;;;;;;;15.63;9.27;;;22.80;99.90;;;;;;5076270;28;20474;-24
2023/08/19 08:04:18;;;;;;;11.45;8.52;;;22.90;99.90;;;;;;5072055;28;20060;-24
2023/08/19 08:06:45;;;;;;;12.23;8.98;;;22.90;99.90;;;;;;5056697;28;20053;-24
2023/08/19 08:09:11;;;;;;;14.00;9.50;;;23.00;99.90;;;;;;5056129;28;20372;-25
2023/08/19 08:11:39;;;;;;;10.15;8.82;;;23.10;99.90;;;;;;5055999;28;20044;-25
2023/08/19 08:14:05;;;;;;;9.02;8.13;;;23.20;99.90;;;;;;5056370;28;20041;-24
2023/08/19 08:16:31;;;;;;;11.18;9.10;;;23.20;99.90;;;;;;5055951;28;20041;-25
2023/08/19 08:18:57;;;;;;;12.55;8.88;;;23.40;99.90;;;;;;5055963;28;20037;-25
2023/08/19 08:21:22;;;;;;;9.70;8.80;;;23.40;99.90;;;;;;5055679;28;20040;-25
2023/08/19 08:23:49;;;;;;;10.43;8.57;;;23.60;99.90;;;;;;5057176;28;20435;-25
2023/08/19 08:26:16;;;;;;;8.77;7.80;;;23.70;99.90;;;;;;5054353;28;20485;-26
2023/08/19 08:28:43;;;;;;;12.80;9.07;;;23.80;99.90;;;;;;5054638;28;20049;-25
2023/08/19 08:31:09;;;;;;;9.50;8.50;;;24.00;99.90;;;;;;5056234;28;20051;-25
2023/08/19 08:33:34;;;;;;;9.23;7.90;;;24.10;99.90;;;;;;5059055;28;20402;-25
2023/08/19 08:36:00;;;;;;;10.00;7.75;;;24.30;99.90;;;;;;5076244;28;20036;-25
2023/08/19 08:38:26;;;;;;;8.50;7.63;;;24.30;99.90;;;;;;5075508;28;20116;-25
2023/08/19 08:40:52;;;;;;;8.52;7.65;;;24.50;99.90;;;;;;5075515;28;20070;-24
2023/08/19 08:43:21;;;;;;;10.23;7.95;;;24.70;99.90;;;;;;5075528;28;20036;-24
2023/08/19 08:45:49;;;;;;;9.23;7.70;;;25.00;99.90;;;;;;5056526;28;20175;-24
2023/08/19 08:48:19;;;;;;;7.18;6.47;;;25.20;99.90;;;;;;5037862;28;20052;-24
2023/08/19 08:50:50;;;;;;;9.02;7.03;;;25.60;99.90;;;;;;5068684;28;20044;-24
2023/08/19 08:53:16;;;;;;;10.00;6.90;;;25.80;43.20;;;;;;5075875;28;20123;-25
2023/08/19 08:55:44;;;;;;;6.85;6.13;;;26.20;8.30;;;;;;5061736;28;20056;-26
2023/08/19 08:58:10;;;;;;;6.75;5.38;;;26.50;1.00;;;;;;5055159;28;20483;-24
2023/08/19 09:00:37;;;;;;;6.25;5.43;;;26.60;99.90;;;;;;5054478;28;20048;-25
2023/08/19 09:03:07;;;;;;;8.32;5.63;;;26.70;99.90;;;;;;5055101;28;20110;-25
2023/08/19 09:05:36;;;;;;;10.00;5.78;;;26.70;99.90;;;;;;5044031;28;20131;-26
2023/08/19 09:08:07;;;;;;;8.70;6.00;;;27.00;99.90;;;;;;5074678;28;20494;-26
2023/08/19 09:10:37;;;;;;;8.05;5.53;;;27.40;99.90;;;;;;5074569;28;20383;-26
2023/08/19 09:13:04;;;;;;;8.00;5.47;;;27.90;99.90;;;;;;5050794;28;20512;-25
2023/08/19 09:15:30;;;;;;;9.52;5.53;;;27.90;99.90;;;;;;5054747;28;20376;-25
2023/08/19 09:17:58;;;;;;;7.15;5.20;;;27.70;99.90;;;;;;5055640;28;20048;-25
2023/08/19 09:20:25;;;;;;;8.15;6.00;;;27.40;99.90;;;;;;5055290;28;20052;-26
2023/08/19 09:23:06;;;;;;;5.72;4.90;;;27.20;1.00;;;;;;5053413;28;20144;-26
2023/08/19 09:25:35;;;;;;;9.70;5.95;;;26.90;1.00;;;;;;5053742;28;20107;-26
2023/08/19 09:28:00;;;;;;;10.43;5.22;;;26.80;1.00;;;;;;5054919;28;20540;-24
2023/08/19 09:30:33;;;;;;;8.18;6.07;;;26.80;1.70;;;;;;5072800;28;20048;-26
2023/08/19 09:32:59;;;;;;;6.72;5.55;;;26.80;1.00;;;;;;5073751;28;20506;-26
2023/08/19 09:35:33;;;;;;;8.23;5.30;;;27.20;1.00;;;;;;5075224;28;20429;-25
2023/08/19 09:37:59;;;;;;;8.60;5.05;;;27.70;1.00;;;;;;5074659;28;20055;-26
2023/08/19 09:40:27;;;;;;;6.82;4.93;;;28.30;99.90;;;;;;5059623;28;20040;-26
2023/08/19 09:42:58;;;;;;;10.38;5.22;;;28.70;73.90;;;;;;5036620;28;20040;-26
2023/08/19 09:45:28;;;;;;;7.93;5.28;;;28.70;1.00;;;;;;5037549;28;20182;-26
2023/08/19 09:47:57;;;;;;;8.57;4.85;;;28.80;99.90;;;;;;5054554;28;20138;-27
2023/08/19 09:50:30;;;;;;;5.80;4.85;;;29.30;99.90;;;;;;5036425;28;20048;-26
2023/08/19 09:53:06;;;;;;;9.77;5.00;;;29.30;1.00;;;;;;5054172;28;20041;-26
2023/08/19 09:55:34;;;;;;;6.25;4.75;;;29.00;99.90;;;;;;5054772;28;20052;-26
2023/08/19 09:58:00;;;;;;;7.45;4.88;;;28.70;99.90;;;;;;5054611;28;20053;-26
2023/08/19 10:00:26;;;;;;;5.72;4.72;;;28.50;99.90;;;;;;5055849;28;20041;-26
2023/08/19 10:02:51;;;;;;;7.47;4.78;;;28.30;99.90;;;;;;5052145;28;20040;-26
2023/08/19 10:05:17;;;;;;;7.05;4.75;;;28.20;99.90;;;;;;5053820;28;20061;-26
2023/08/19 10:08:07;;;;;;;9.02;4.72;;;28.10;99.90;;;;;;5053076;28;20143;-26
2023/08/19 10:10:39;;;;;;;7.38;5.13;;;27.90;99.90;;;;;;5054864;28;20045;-24
2023/08/19 10:13:08;;;;;;;9.88;5.40;;;27.60;99.90;;;;;;5072942;28;20049;-26
2023/08/19 10:15:37;;;;;;;9.95;5.25;;;27.50;1.00;;;;;;5073509;28;20482;-26
2023/08/19 10:18:11;;;;;;;8.73;5.95;;;27.40;87.70;;;;;;5066466;28;20045;-26
2023/08/19 10:20:45;;;;;;;11.18;5.60;;;27.20;17.90;;;;;;5054064;28;20045;-26
2023/08/19 10:23:12;;;;;;;10.30;6.40;;;27.00;99.90;;;;;;5053648;28;20116;-25
2023/08/19 10:25:40;;;;;;;11.25;5.88;;;26.60;99.90;;;;;;5052093;28;20057;-24
2023/08/19 10:28:24;;;;;;;11.82;6.03;;;26.20;1.00;;;;;;5055483;28;20052;-24
2023/08/19 10:31:13;;;;;;;10.70;6.03;;;25.80;99.90;;;;;;5074551;28;20048;-25
2023/08/19 10:33:45;;;;;;;12.93;6.38;;;25.60;99.90;;;;;;5073993;28;20042;-25
2023/08/19 10:36:18;;;;;;;16.77;7.38;;;25.60;99.90;;;;;;5073634;28;20109;-25
2023/08/19 10:39:05;;;;;;;10.98;6.50;;;25.70;99.90;;;;;;5071696;28;20052;-26
2023/08/19 10:41:38;;;;;;;10.30;6.78;;;25.90;99.90;;;;;;5072662;28;20056;-26
2023/08/19 10:44:03;;;;;;;;;;;26.10;99.90;;;;;;5075484;28;20045;-26
2023/08/19 10:46:38;;;;;;;11.52;6.53;;;26.10;99.90;;;;;;5077795;28;19932;-26
2023/08/19 10:49:11;;;;;;;9.35;7.43;;;26.20;99.90;;;;;;5075617;28;20084;-26
2023/08/19 10:51:47;;;;;;;8.43;6.63;;;26.30;99.90;;;;;;5056365;28;20045;-26
2023/08/19 10:54:13;;;;;;;9.70;7.07;;;26.30;99.90;;;;;;5059858;28;20142;-26
2023/08/19 10:56:50;;;;;;;8.68;7.03;;;26.30;99.90;;;;;;5061771;28;20044;-25
2023/08/19 10:59:17;;;;;;;10.90;7.57;;;26.30;99.90;;;;;;5062889;28;20116;-24
2023/08/19 11:01:45;;;;;;;11.43;8.45;;;26.20;99.90;;;;;;5061988;28;20490;-24
2023/08/19 11:04:12;;;;;;;10.45;7.50;;;26.10;99.90;;;;;;5063610;28;20107;-23
2023/08/19 11:06:39;;;;;;;9.10;8.00;;;26.10;99.90;;;;;;5068289;28;20103;-26
2023/08/19 11:09:05;;;;;;;10.43;8.07;;;26.10;99.90;;;;;;5067668;28;20049;-24
2023/08/19 11:11:31;;;;;;;12.00;8.32;;;26.10;1.00;;;;;;5057227;28;20087;-26
2023/08/19 11:13:58;;;;;;;11.65;8.23;;;26.00;99.90;;;;;;5059065;28;20087;-26
2023/08/19 11:16:27;;;;;;;12.52;9.13;;;26.00;99.90;;;;;;5062393;28;20106;-26
2023/08/19 11:18:57;;;;;;;11.27;9.32;;;26.20;99.90;;;;;;5077045;28;20067;-26
2023/08/19 11:21:24;;;;;;;14.55;9.85;;;26.40;99.90;;;;;;5073283;28;20061;-26
2023/08/19 11:23:51;;;;;;;12.18;9.80;;;27.30;99.90;;;;;;5059365;28;20127;-26
2023/08/19 11:26:17;;;;;;;11.02;9.75;;;28.30;99.90;;;;;;5067612;28;20049;-25
2023/08/19 11:28:45;;;;;;;16.23;10.38;;;28.90;99.90;;;;;;5055477;28;20045;-26
2023/08/19 11:31:11;;;;;;;12.40;10.40;;;29.40;99.90;;;;;;5056809;28;20081;-26
2023/08/19 11:33:37;;;;;;;14.43;10.85;;;29.40;1.00;;;;;;5069457;28;20083;-26
2023/08/19 11:36:03;;;;;;;14.38;11.13;;;29.50;99.90;;;;;;5074568;28;20051;-24
2023/08/19 11:38:28;;;;;;;13.80;11.07;;;29.30;1.00;;;;;;5054825;28;20394;-26
2023/08/19 11:40:54;;;;;;;13.88;11.15;;;28.80;99.90;;;;;;5056715;28;20082;-26
2023/08/19 11:43:23;;;;;;;15.07;12.27;;;28.60;1.00;;;;;;5055972;28;20056;-27
2023/08/19 11:45:49;;;;;;;14.75;12.30;;;28.10;52.80;;;;;;5056495;28;20068;-26
2023/08/19 11:48:17;;;;;;;16.77;13.98;;;27.90;99.90;;;;;;5067260;28;20044;-26
2023/08/19 11:50:49;;;;;;;16.50;13.70;;;27.70;99.90;;;;;;5057627;28;20056;-26
2023/08/19 11:53:25;;;;;;;16.23;13.45;;;27.50;99.90;;;;;;5061901;28;20051;-27
2023/08/19 11:55:56;;;;;;;18.35;16.05;;;27.60;1.00;;;;;;5076210;28;20080;-26
2023/08/19 11:58:22;;;;;;;19.80;15.70;;;27.50;1.00;;;;;;5076889;28;20375;-26
2023/08/19 12:00:47;;;;;;;18.50;16.60;;;27.30;1.00;;;;;;5073266;28;20044;-27
2023/08/19 12:03:16;;;;;;;26.75;21.15;;;27.00;36.20;;;;;;5059240;28;20040;-26
2023/08/19 12:05:44;;;;;;;27.98;24.63;;;26.50;99.90;;;;;;5075093;28;20052;-26
2023/08/19 12:08:29;;;;;;;31.00;25.95;;;26.00;1.00;;;;;;5076460;28;20052;-26
2023/08/19 12:10:55;;;;;;;28.25;23.85;;;25.70;1.00;;;;;;5073484;28;20543;-23
2023/08/19 12:13:21;;;;;;;27.88;25.05;;;25.50;1.00;;;;;;5060008;28;20111;-26
2023/08/19 12:15:47;;;;;;;44.92;37.30;;;25.30;92.70;;;;;;5075405;28;20051;-24
2023/08/19 12:18:17;;;;;;;45.17;34.33;;;24.80;99.90;;;;;;5057484;28;20044;-24
2023/08/19 12:20:44;;;;;;;51.90;40.17;;;24.40;99.90;;;;;;5074911;28;20044;-25
2023/08/19 12:23:09;;;;;;;52.83;38.70;;;24.10;99.90;;;;;;5047598;28;20055;-24
2023/08/19 12:25:56;;;;;;;56.22;41.72;;;23.90;99.90;;;;;;5054808;28;20124;-24
2023/08/19 12:28:23;;;;;;;55.10;39.72;;;23.80;99.90;;;;;;5039057;28;20045;-26
2023/08/19 12:30:50;;;;;;;56.70;41.05;;;23.70;99.90;;;;;;5037927;28;20052;-25
2023/08/19 12:33:16;;;;;;;58.15;37.45;;;23.70;99.90;;;;;;5055604;28;20041;-26
2023/08/19 12:35:44;;;;;;;52.88;35.25;;;23.80;99.90;;;;;;5055664;28;20044;-25